Time;durP1;ratioP1;P1;durP2;ratioP2;P2;SDS_P1;SDS_P2;PMS_P1;PMS_P2;Temp;Humidity;BMP_temperature;BMP_pressure;BME280_temperature;BME280_humidity;BME280_pressure;Samples;Min_cycle;Max_cycle;Signal;HPM_P1;HPM_P2
2022/01/24 00:02:20;;;;;;;;;;;6.50;99.90;;;;;;5114893;28;19924;-68
2022/01/24 00:04:48;;;;;;;;;;;6.50;99.90;;;;;;5114280;28;19968;-68
2022/01/24 00:07:17;;;;;;;;;;;6.40;99.90;;;;;;5114826;28;19983;-68
2022/01/24 00:09:43;;;;;;;;;;;6.40;99.90;;;;;;5114843;28;19919;-68
2022/01/24 00:12:19;;;;;;;;;;;6.40;99.90;;;;;;5096514;28;19930;-68
2022/01/24 00:28:12;;;;;;;;;;;6.40;99.90;;;;;;5114183;28;19986;-67
2022/01/24 00:30:38;;;;;;;;;;;6.40;99.90;;;;;;5114507;28;19967;-67
2022/01/24 00:33:03;;;;;;;;;;;6.30;99.90;;;;;;5114337;28;19923;-71
2022/01/24 00:35:29;;;;;;;;;;;6.40;99.90;;;;;;5096680;28;20269;-67
2022/01/24 00:38:00;;;;;;;;;;;6.40;99.90;;;;;;5114197;28;19924;-66
2022/01/24 00:40:27;;;;;;;;;;;6.40;99.90;;;;;;5114300;28;19924;-68
2022/01/24 00:42:58;;;;;;;;;;;6.40;99.90;;;;;;5113390;28;19985;-69
2022/01/24 00:45:31;;;;;;;;;;;6.40;99.90;;;;;;5113933;28;20467;-67
2022/01/24 00:53:29;;;;;;;;;;;6.30;99.90;;;;;;5113684;28;20380;-67
2022/01/24 00:55:54;;;;;;;;;;;6.30;99.90;;;;;;5113936;28;20409;-68
2022/01/24 00:58:20;;;;;;;;;;;6.30;99.90;;;;;;5112606;28;20018;-68
2022/01/24 01:00:45;;;;;;;;;;;6.30;99.90;;;;;;5114107;28;20293;-68
2022/01/24 01:03:11;;;;;;;;;;;6.30;99.90;;;;;;5112773;28;19985;-66
2022/01/24 01:18:49;;;;;;;;;;;6.20;99.90;;;;;;5113849;28;19931;-66
2022/01/24 01:21:15;;;;;;;;;;;6.20;99.90;;;;;;5112207;28;20289;-68
2022/01/24 01:23:45;;;;;;;;;;;6.20;99.90;;;;;;5112794;28;19935;-68
2022/01/24 01:26:38;;;;;;;;;;;6.20;99.90;;;;;;5112255;28;19928;-68
2022/01/24 01:29:13;;;;;;;;;;;6.20;99.90;;;;;;5112717;28;19947;-68
2022/01/24 01:34:47;;;;;;;;;;;6.10;99.90;;;;;;5113215;27;19976;-67
2022/01/24 01:40:02;;;;;;;;;;;6.10;99.90;;;;;;5112052;28;19992;-67
2022/01/24 01:54:17;;;;;;;;;;;6.00;99.90;;;;;;5112792;28;20257;-67
2022/01/24 01:56:11;;;;;;;;;;;6.00;99.90;;;;;;5106820;28;20468;-67
2022/01/24 01:58:37;;;;;;;;;;;6.00;99.90;;;;;;5112708;28;19977;-68
2022/01/24 02:01:03;;;;;;;;;;;6.00;99.90;;;;;;5111074;28;19972;-67
2022/01/24 02:03:30;;;;;;;;;;;6.00;99.90;;;;;;5111132;28;20348;-67
2022/01/24 02:05:55;;;;;;;;;;;6.00;99.90;;;;;;5111927;28;20357;-67
2022/01/24 02:08:29;;;;;;;;;;;6.00;99.90;;;;;;5110993;28;19927;-67
2022/01/24 02:10:55;;;;;;;;;;;6.00;99.90;;;;;;5112722;27;19931;-68
2022/01/24 02:13:23;;;;;;;;;;;6.00;99.90;;;;;;5112016;28;19928;-69
2022/01/24 02:16:17;;;;;;;;;;;5.90;99.90;;;;;;5113028;28;19923;-68
2022/01/24 02:19:34;;;;;;;;;;;5.90;99.90;;;;;;5112480;28;19950;-67
2022/01/24 02:24:06;;;;;;;;;;;5.90;99.90;;;;;;5112333;27;19946;-68
2022/01/24 02:26:33;;;;;;;;;;;5.90;99.90;;;;;;5112185;28;19924;-68
2022/01/24 02:31:40;;;;;;;;;;;5.80;99.90;;;;;;5112026;28;19931;-68
2022/01/24 02:34:17;;;;;;;;;;;5.80;99.90;;;;;;5111318;28;20364;-67
2022/01/24 02:36:43;;;;;;;;;;;5.80;99.90;;;;;;5110849;28;19923;-67
2022/01/24 02:39:59;;;;;;;;;;;5.80;99.90;;;;;;5112222;28;19974;-68
2022/01/24 02:50:14;;;;;;;;;;;5.70;99.90;;;;;;5112043;28;19934;-67
2022/01/24 02:52:40;;;;;;;;;;;5.80;99.90;;;;;;5111693;28;19928;-68
2022/01/24 02:55:05;;;;;;;;;;;5.80;99.90;;;;;;5112031;28;19931;-68
2022/01/24 02:57:31;;;;;;;;;;;5.80;99.90;;;;;;5110194;28;19978;-68
2022/01/24 02:59:56;;;;;;;;;;;5.70;99.90;;;;;;5112085;28;20024;-68
2022/01/24 03:02:22;;;;;;;;;;;5.70;99.90;;;;;;5112050;28;19928;-68
2022/01/24 03:04:48;;;;;;;;;;;5.70;99.90;;;;;;5110780;28;20376;-68
2022/01/24 03:07:13;;;;;;;;;;;5.70;99.90;;;;;;5112080;28;19928;-68
2022/01/24 03:09:40;;;;;;;;;;;5.70;99.90;;;;;;5111613;28;19931;-68
2022/01/24 03:12:11;;;;;;;;;;;5.70;99.90;;;;;;5113104;28;20392;-68
2022/01/24 03:14:37;;;;;;;;;;;5.70;99.90;;;;;;5114941;28;19924;-67
2022/01/24 03:17:03;;;;;;;;;;;5.70;99.90;;;;;;5115838;28;20276;-67
2022/01/24 03:19:29;;;;;;;;;;;5.70;99.90;;;;;;5115765;28;19931;-68
2022/01/24 03:21:55;;;;;;;;;;;5.70;99.90;;;;;;5114832;28;19924;-68
2022/01/24 03:24:20;;;;;;;;;;;5.70;99.90;;;;;;5116081;28;20339;-68
2022/01/24 03:26:47;;;;;;;;;;;5.70;99.90;;;;;;5115602;28;19997;-67
2022/01/24 03:29:13;;;;;;;;;;;5.70;99.90;;;;;;5116003;28;19930;-68
2022/01/24 03:31:40;;;;;;;;;;;5.70;99.90;;;;;;5115842;28;19920;-68
2022/01/24 03:34:05;;;;;;;;;;;5.70;99.90;;;;;;5115804;28;20334;-68
2022/01/24 03:36:31;;;;;;;;;;;5.70;99.90;;;;;;5115283;27;19932;-68
2022/01/24 03:38:57;;;;;;;;;;;5.70;99.90;;;;;;5115739;28;19924;-68
2022/01/24 03:41:22;;;;;;;;;;;5.70;99.90;;;;;;5097238;28;19924;-68
2022/01/24 03:43:48;;;;;;;;;;;5.70;99.90;;;;;;5115373;28;19923;-68
2022/01/24 03:48:52;;;;;;;;;;;5.70;99.90;;;;;;5115077;28;19931;-68
2022/01/24 03:51:19;;;;;;;;;;;5.70;99.90;;;;;;5115364;28;20345;-65
2022/01/24 03:53:45;;;;;;;;;;;5.70;99.90;;;;;;5113918;28;19924;-67
2022/01/24 03:56:11;;;;;;;;;;;5.70;99.90;;;;;;5113714;28;19938;-66
2022/01/24 03:58:37;;;;;;;;;;;5.70;99.90;;;;;;5114849;28;19933;-66
2022/01/24 04:01:05;;;;;;;;;;;5.70;99.90;;;;;;5115479;28;20288;-66
2022/01/24 04:03:31;;;;;;;;;;;5.70;99.90;;;;;;5115280;28;19927;-66
2022/01/24 04:05:57;;;;;;;;;;;5.70;99.90;;;;;;5113843;28;19987;-67
2022/01/24 04:08:23;;;;;;;;;;;5.70;99.90;;;;;;5115040;28;19923;-66
2022/01/24 04:10:52;;;;;;;;;;;5.70;99.90;;;;;;5114496;28;19923;-67
2022/01/24 04:15:59;;;;;;;;;;;5.70;99.90;;;;;;5114701;28;19924;-67
2022/01/24 04:23:37;;;;;;;;;;;5.70;99.90;;;;;;5114195;28;19924;-67
2022/01/24 04:26:03;;;;;;;;;;;5.70;99.90;;;;;;5114960;28;19931;-67
2022/01/24 04:28:28;;;;;;;;;;;5.70;99.90;;;;;;5114682;28;19924;-68
2022/01/24 04:30:54;;;;;;;;;;;5.70;99.90;;;;;;5095927;28;19949;-68
2022/01/24 04:33:19;;;;;;;;;;;5.70;99.90;;;;;;5113564;28;19924;-68
2022/01/24 04:35:45;;;;;;;;;;;5.70;99.90;;;;;;5114347;28;19928;-68
2022/01/24 04:38:10;;;;;;;;;;;5.70;99.90;;;;;;5114564;28;19941;-68
2022/01/24 04:40:36;;;;;;;;;;;5.70;99.90;;;;;;5114204;28;19924;-68
2022/01/24 04:43:24;;;;;;;;;;;5.70;99.90;;;;;;5114249;28;20010;-68
2022/01/24 04:46:02;;;;;;;;;;;5.70;99.90;;;;;;5114118;28;19989;-68
2022/01/24 04:56:38;;;;;;;;;;;5.60;99.90;;;;;;5114194;28;19924;-68
2022/01/24 04:59:04;;;;;;;;;;;5.70;99.90;;;;;;5114176;28;19981;-68
2022/01/24 05:01:30;;;;;;;;;;;5.70;99.90;;;;;;5113808;28;20006;-67
2022/01/24 05:03:55;;;;;;;;;;;5.70;99.90;;;;;;5112529;28;19928;-67
2022/01/24 05:06:21;;;;;;;;;;;5.70;99.90;;;;;;5113720;28;20026;-68
2022/01/24 05:08:47;;;;;;;;;;;5.70;99.90;;;;;;5113522;28;19927;-68
2022/01/24 05:11:18;;;;;;;;;;;5.70;99.90;;;;;;5113687;28;19924;-68
2022/01/24 05:24:34;;;;;;;;;;;5.60;99.90;;;;;;5113597;28;19930;-67
2022/01/24 05:27:00;;;;;;;;;;;5.60;99.90;;;;;;5113212;28;20076;-68
2022/01/24 05:29:26;;;;;;;;;;;5.60;99.90;;;;;;5113543;28;20034;-66
2022/01/24 05:31:51;;;;;;;;;;;5.60;99.90;;;;;;5111548;28;19969;-67
2022/01/24 05:34:17;;;;;;;;;;;5.60;99.90;;;;;;5112251;28;19931;-68
2022/01/24 05:36:42;;;;;;;;;;;5.60;99.90;;;;;;5112295;28;20014;-67
2022/01/24 05:39:08;;;;;;;;;;;5.60;99.90;;;;;;5113160;28;19924;-69
2022/01/24 05:41:36;;;;;;;;;;;5.70;99.90;;;;;;5113189;28;20388;-68
2022/01/24 05:44:01;;;;;;;;;;;5.70;99.90;;;;;;5112852;28;19923;-68
2022/01/24 05:46:27;;;;;;;;;;;5.70;99.90;;;;;;5113254;28;19947;-67
2022/01/24 05:48:54;;;;;;;;;;;5.70;99.90;;;;;;5112904;28;19924;-67
2022/01/24 05:51:20;;;;;;;;;;;5.60;99.90;;;;;;5112126;28;19924;-67
2022/01/24 05:53:46;;;;;;;;;;;5.70;99.90;;;;;;5112221;28;19947;-67
2022/01/24 05:56:12;;;;;;;;;;;5.70;99.90;;;;;;5112716;28;20327;-67
2022/01/24 05:58:37;;;;;;;;;;;5.70;99.90;;;;;;5113202;28;19923;-67
2022/01/24 06:01:03;;;;;;;;;;;5.70;99.90;;;;;;5112765;28;19924;-67
2022/01/24 06:03:29;;;;;;;;;;;5.60;99.90;;;;;;5113194;28;19924;-69
2022/01/24 06:05:54;;;;;;;;;;;5.60;99.90;;;;;;5112736;28;20373;-68
2022/01/24 06:08:20;;;;;;;;;;;5.70;99.90;;;;;;5113134;28;20014;-68
2022/01/24 06:10:47;;;;;;;;;;;5.60;99.90;;;;;;5111720;28;19931;-68
2022/01/24 06:13:13;;;;;;;;;;;5.60;99.90;;;;;;5111395;28;19924;-69
2022/01/24 06:15:38;;;;;;;;;;;5.60;99.90;;;;;;5112813;28;19968;-68
2022/01/24 06:18:04;;;;;;;;;;;5.60;99.90;;;;;;5112042;28;19924;-68
2022/01/24 06:20:29;;;;;;;;;;;5.60;99.90;;;;;;5111776;28;20007;-68
2022/01/24 06:22:55;;;;;;;;;;;5.60;99.90;;;;;;5112091;28;19919;-68
2022/01/24 06:25:23;;;;;;;;;;;5.60;99.90;;;;;;5111800;28;20003;-68
2022/01/24 06:27:49;;;;;;;;;;;5.60;99.90;;;;;;5111598;28;19972;-68
2022/01/24 06:30:15;;;;;;;;;;;5.60;99.90;;;;;;5111116;28;19923;-67
2022/01/24 06:32:40;;;;;;;;;;;5.60;99.90;;;;;;5112365;28;19981;-66
2022/01/24 06:35:07;;;;;;;;;;;5.60;99.90;;;;;;5111217;28;19975;-67
2022/01/24 06:37:32;;;;;;;;;;;5.60;99.90;;;;;;5112519;28;19924;-67
2022/01/24 06:39:58;;;;;;;;;;;5.60;99.90;;;;;;5112280;28;19947;-67
2022/01/24 06:42:23;;;;;;;;;;;5.50;99.90;;;;;;5111181;28;19963;-67
2022/01/24 06:44:53;;;;;;;;;;;5.60;99.90;;;;;;5094325;28;19924;-68
2022/01/24 06:47:19;;;;;;;;;;;5.60;99.90;;;;;;5111874;28;20419;-68
2022/01/24 06:49:45;;;;;;;;;;;5.60;99.90;;;;;;5111256;28;19924;-66
2022/01/24 06:52:13;;;;;;;;;;;5.60;99.90;;;;;;5111036;28;19928;-67
2022/01/24 06:54:41;;;;;;;;;;;5.50;99.90;;;;;;5112053;28;19938;-68
2022/01/24 06:57:07;;;;;;;;;;;5.50;99.90;;;;;;5111840;28;19924;-68
2022/01/24 06:59:33;;;;;;;;;;;5.50;99.90;;;;;;5112267;28;19924;-68
2022/01/24 07:01:59;;;;;;;;;;;5.50;99.90;;;;;;5111930;28;20315;-67
2022/01/24 07:04:24;;;;;;;;;;;5.50;99.90;;;;;;5111175;28;20284;-68
2022/01/24 07:06:51;;;;;;;;;;;5.60;99.90;;;;;;5112126;28;19923;-67
2022/01/24 07:09:16;;;;;;;;;;;5.50;99.90;;;;;;5111485;28;20488;-67
2022/01/24 07:11:42;;;;;;;;;;;5.50;99.90;;;;;;5111948;28;19930;-67
2022/01/24 07:14:12;;;;;;;;;;;5.50;99.90;;;;;;5111864;28;20010;-67
2022/01/24 07:17:03;;;;;;;;;;;5.60;99.90;;;;;;5111933;28;19923;-66
2022/01/24 07:19:29;;;;;;;;;;;5.60;99.90;;;;;;5111101;28;20018;-67
2022/01/24 07:21:59;;;;;;;;;;;5.70;99.90;;;;;;5112033;28;19924;-67
2022/01/24 07:24:25;;;;;;;;;;;5.50;99.90;;;;;;5111998;28;19931;-67
2022/01/24 07:26:51;;;;;;;;;;;5.50;99.90;;;;;;5112026;28;19928;-66
2022/01/24 07:29:17;;;;;;;;;;;5.50;99.90;;;;;;5111626;28;20383;-68
2022/01/24 07:31:43;;;;;;;;;;;5.50;99.90;;;;;;5110850;28;19970;-67
2022/01/24 07:34:08;;;;;;;;;;;5.50;99.90;;;;;;5110688;28;19978;-67
2022/01/24 07:36:34;;;;;;;;;;;5.50;99.90;;;;;;5111892;28;19931;-68
2022/01/24 07:39:00;;;;;;;;;;;5.50;99.90;;;;;;5112020;28;20384;-68
2022/01/24 07:41:29;;;;;;;;;;;5.50;99.90;;;;;;5111503;28;20007;-67
2022/01/24 07:43:55;;;;;;;;;;;5.50;99.90;;;;;;5111614;28;20315;-67
2022/01/24 07:46:20;;;;;;;;;;;5.50;99.90;;;;;;5111318;28;19976;-68
2022/01/24 07:48:46;;;;;;;;;;;5.50;99.90;;;;;;5110414;28;19923;-67
2022/01/24 07:51:12;;;;;;;;;;;5.50;99.90;;;;;;5110977;28;19924;-67
2022/01/24 07:53:37;;;;;;;;;;;5.50;99.90;;;;;;5111307;28;19931;-67
2022/01/24 07:56:04;;;;;;;;;;;5.40;99.90;;;;;;5109165;28;19931;-72
2022/01/24 07:58:29;;;;;;;;;;;5.40;99.90;;;;;;5111918;28;19924;-66
2022/01/24 08:00:55;;;;;;;;;;;5.50;99.90;;;;;;5114121;28;19928;-66
2022/01/24 08:03:20;;;;;;;;;;;5.40;99.90;;;;;;5114874;28;19928;-66
2022/01/24 08:05:46;;;;;;;;;;;5.40;99.90;;;;;;5115057;28;20018;-65
2022/01/24 08:08:12;;;;;;;;;;;5.40;99.90;;;;;;5114931;28;19975;-65
2022/01/24 08:10:38;;;;;;;;;;;5.50;99.90;;;;;;5113851;28;19924;-66
2022/01/24 08:13:04;;;;;;;;;;;5.50;99.90;;;;;;5113851;28;20006;-66
2022/01/24 08:15:29;;;;;;;;;;;5.50;99.90;;;;;;5113355;28;20101;-66
2022/01/24 08:17:55;;;;;;;;;;;5.50;99.90;;;;;;5114990;28;19935;-66
2022/01/24 08:20:21;;;;;;;;;;;5.50;99.90;;;;;;5114634;28;20277;-65
2022/01/24 08:22:47;;;;;;;;;;;5.40;99.90;;;;;;5113680;28;20027;-65
2022/01/24 08:25:13;;;;;;;;;;;5.50;99.90;;;;;;5114309;28;20011;-67
2022/01/24 08:27:39;;;;;;;;;;;5.50;99.90;;;;;;5113798;28;20010;-65
2022/01/24 08:30:16;;;;;;;;;;;5.50;99.90;;;;;;5113545;28;20101;-66
2022/01/24 08:32:42;;;;;;;;;;;5.50;99.90;;;;;;5113995;28;19953;-66
2022/01/24 08:35:09;;;;;;;;;;;5.60;99.90;;;;;;5114468;28;19923;-74
2022/01/24 08:37:35;;;;;;;;;;;5.50;99.90;;;;;;5113629;28;19931;-67
2022/01/24 08:40:00;;;;;;;;;;;5.50;99.90;;;;;;5114864;28;19932;-66
2022/01/24 08:42:52;;;;;;;;;;;5.50;99.90;;;;;;5114341;27;20338;-66
2022/01/24 08:48:02;;;;;;;;;;;5.50;99.90;;;;;;5114642;28;19969;-67
2022/01/24 08:50:28;;;;;;;;;;;5.60;99.90;;;;;;5112913;28;20322;-67
2022/01/24 08:52:59;;;;;;;;;;;5.60;99.90;;;;;;5113106;28;19924;-67
2022/01/24 08:55:28;;;;;;;;;;;5.60;99.90;;;;;;5114160;27;19970;-69
2022/01/24 08:57:54;;;;;;;;;;;5.60;99.90;;;;;;5095855;28;19923;-68
2022/01/24 09:00:19;;;;;;;;;;;5.60;99.90;;;;;;5113852;28;20014;-68
2022/01/24 09:02:45;;;;;;;;;;;5.60;99.90;;;;;;5114367;28;20340;-68
2022/01/24 09:05:11;;;;;;;;;;;5.70;99.90;;;;;;5114264;28;19975;-68
2022/01/24 09:07:36;;;;;;;;;;;5.70;99.90;;;;;;5078994;28;19924;-66
2022/01/24 09:10:04;;;;;;;;;;;5.70;99.90;;;;;;5112817;28;20162;-68
2022/01/24 09:12:30;;;;;;;;;;;5.70;99.90;;;;;;5112459;28;19924;-68
2022/01/24 09:14:55;;;;;;;;;;;5.70;99.90;;;;;;5114020;28;19924;-69
2022/01/24 09:17:21;;;;;;;;;;;5.70;99.90;;;;;;5112559;28;20375;-68
2022/01/24 09:19:46;;;;;;;;;;;5.70;99.90;;;;;;5114103;28;19920;-68
2022/01/24 09:22:12;;;;;;;;;;;5.80;99.90;;;;;;5113713;28;19928;-68
2022/01/24 09:24:38;;;;;;;;;;;5.70;99.90;;;;;;5112353;28;20449;-68
2022/01/24 09:27:04;;;;;;;;;;;5.80;99.90;;;;;;5095681;28;20029;-69
2022/01/24 09:29:29;;;;;;;;;;;5.70;99.90;;;;;;5113454;28;19924;-69
2022/01/24 09:31:55;;;;;;;;;;;5.80;99.90;;;;;;5113565;28;20380;-68
2022/01/24 09:34:21;;;;;;;;;;;5.80;99.90;;;;;;5113422;28;19927;-67
2022/01/24 09:36:50;;;;;;;;;;;5.70;99.90;;;;;;5113563;28;19931;-68
2022/01/24 09:39:16;;;;;;;;;;;5.80;99.90;;;;;;5112084;28;20369;-69
2022/01/24 09:41:41;;;;;;;;;;;5.80;99.90;;;;;;5113114;28;19930;-68
2022/01/24 09:44:07;;;;;;;;;;;5.80;99.90;;;;;;5111968;28;19923;-66
2022/01/24 09:46:36;;;;;;;;;;;5.80;99.90;;;;;;5112885;28;20023;-68
2022/01/24 09:49:02;;;;;;;;;;;5.80;99.90;;;;;;5113337;28;20363;-68
2022/01/24 09:51:28;;;;;;;;;;;5.80;99.90;;;;;;5111766;28;19930;-67
2022/01/24 09:53:53;;;;;;;;;;;5.80;99.90;;;;;;5113106;28;19924;-67
2022/01/24 09:56:19;;;;;;;;;;;5.90;99.90;;;;;;5111523;28;19924;-71
2022/01/24 09:58:45;;;;;;;;;;;5.90;99.90;;;;;;5113076;28;20415;-69
2022/01/24 10:01:13;;;;;;;;;;;5.90;99.90;;;;;;5111983;28;20026;-67
2022/01/24 10:03:38;;;;;;;;;;;5.90;99.90;;;;;;5111503;28;19923;-69
2022/01/24 10:06:04;;;;;;;;;;;5.90;99.90;;;;;;5113105;28;20213;-71
2022/01/24 10:08:30;;;;;;;;;;;5.90;99.90;;;;;;5111066;28;19930;-69
2022/01/24 10:10:59;;;;;;;;;;;5.90;99.90;;;;;;5112858;28;19952;-69
2022/01/24 10:16:31;;;;;;;;;;;5.90;99.90;;;;;;5112677;28;19928;-69
2022/01/24 10:18:58;;;;;;;;;;;5.90;99.90;;;;;;5111844;28;19920;-68
2022/01/24 10:21:23;;;;;;;;;;;5.90;99.90;;;;;;5111757;28;19977;-70
2022/01/24 10:23:49;;;;;;;;;;;5.90;99.90;;;;;;5112759;28;19924;-68
2022/01/24 10:26:15;;;;;;;;;;;5.90;99.90;;;;;;5111649;28;19923;-69
2022/01/24 10:28:43;;;;;;;;;;;5.90;99.90;;;;;;5094473;28;20032;-69
2022/01/24 10:31:16;;;;;;;;;;;5.90;99.90;;;;;;5110655;28;19924;-69
2022/01/24 11:03:16;;;;;;;;;;;5.90;99.90;;;;;;5119994;27;1990482;-69
2022/01/24 11:05:43;;;;;;;;;;;5.90;99.90;;;;;;5172443;27;20368;-69
2022/01/24 11:08:13;;;;;;;;;;;5.90;99.90;;;;;;5161850;27;19922;-70
2022/01/24 11:10:40;;;;;;;;;;;6.00;99.90;;;;;;5141193;27;20132;-69
2022/01/24 11:13:06;;;;;;;;;;;5.90;99.90;;;;;;5170932;27;19927;-69
2022/01/24 11:15:35;;;;;;;;;;;5.90;99.90;;;;;;5169836;27;19927;-71
2022/01/24 11:18:02;;;;;;;;;;;6.00;99.90;;;;;;5183146;27;19927;-71
2022/01/24 11:20:31;;;;;;;;;;;6.00;99.90;;;;;;5191039;27;19927;-70
2022/01/24 11:23:00;;;;;;;;;;;6.00;99.90;;;;;;5172436;27;19926;-70
2022/01/24 11:25:26;;;;;;;;;;;6.00;99.90;;;;;;5170739;27;20009;-70
2022/01/24 11:27:55;;;;;;;;;;;6.00;99.90;;;;;;5173512;27;19929;-70
2022/01/24 11:30:22;;;;;;;;;;;6.00;99.90;;;;;;5157865;27;19930;-69
2022/01/24 11:32:55;;;;;;;;;;;6.10;99.90;;;;;;5153982;27;19927;-71
2022/01/24 11:35:35;;;;;;;;;;;6.10;99.90;;;;;;5160986;27;20298;-71
2022/01/24 11:38:01;;;;;;;;;;;6.10;99.90;;;;;;5186198;27;20090;-70
2022/01/24 11:40:27;;;;;;;;;;;6.10;99.90;;;;;;5155673;27;20010;-71
2022/01/24 11:42:53;;;;;;;;;;;6.10;99.90;;;;;;5158565;27;19930;-71
2022/01/24 11:45:43;;;;;;;;;;;6.10;99.90;;;;;;5172514;27;19923;-72
2022/01/24 11:48:14;;;;;;;;;;;6.10;99.90;;;;;;5177530;27;19923;-68
2022/01/24 11:50:39;;;;;;;;;;;6.10;99.90;;;;;;5158822;27;19946;-68
2022/01/24 11:53:18;;;;;;;;;;;6.10;99.90;;;;;;5150545;27;19923;-67
2022/01/24 11:55:44;;;;;;;;;;;6.10;99.90;;;;;;5177064;27;19922;-68
2022/01/24 11:58:09;;;;;;;;;;;6.20;99.90;;;;;;5182089;27;19929;-68
2022/01/24 12:00:40;;;;;;;;;;;6.20;99.90;;;;;;5181866;27;20383;-68
2022/01/24 12:03:23;;;;;;;;;;;6.20;99.90;;;;;;5179917;27;19991;-69
2022/01/24 12:05:51;;;;;;;;;;;6.20;99.90;;;;;;5170057;27;19923;-69
2022/01/24 12:08:34;;;;;;;;;;;6.10;99.90;;;;;;5166472;27;19930;-70
2022/01/24 12:11:13;;;;;;;;;;;6.10;99.90;;;;;;5138678;27;19923;-68
2022/01/24 12:13:41;;;;;;;;;;;6.10;99.90;;;;;;5180393;27;19923;-72
2022/01/24 12:16:09;;;;;;;;;;;6.10;99.90;;;;;;5156298;27;19923;-69
2022/01/24 12:18:35;;;;;;;;;;;6.10;99.90;;;;;;5159760;27;20018;-68
2022/01/24 12:21:01;;;;;;;;;;;6.10;99.90;;;;;;5141890;27;19919;-67
2022/01/24 12:23:30;;;;;;;;;;;6.10;99.90;;;;;;5140744;27;19930;-69
2022/01/24 12:26:02;;;;;;;;;;;6.10;99.90;;;;;;5157795;27;19938;-68
2022/01/24 12:28:29;;;;;;;;;;;6.10;99.90;;;;;;5163603;27;20311;-68
2022/01/24 12:31:06;;;;;;;;;;;6.10;99.90;;;;;;5149310;27;19929;-68
2022/01/24 12:33:34;;;;;;;;;;;6.10;99.90;;;;;;5169033;27;20444;-70
2022/01/24 12:36:00;;;;;;;;;;;6.10;99.90;;;;;;5165568;27;19923;-69
2022/01/24 12:38:38;;;;;;;;;;;6.10;99.90;;;;;;5157549;27;20022;-69
2022/01/24 12:41:24;;;;;;;;;;;6.20;99.90;;;;;;5155332;27;19918;-69
2022/01/24 12:46:20;;;;;;;;;;;6.10;99.90;;;;;;5169641;27;20328;-68
2022/01/24 12:48:49;;;;;;;;;;;6.10;99.90;;;;;;5136282;27;20130;-72
2022/01/24 12:51:16;;;;;;;;;;;6.00;99.90;;;;;;5136813;27;19922;-68
2022/01/24 12:53:42;;;;;;;;;;;6.10;99.90;;;;;;5167285;27;19923;-68
2022/01/24 12:56:08;;;;;;;;;;;6.10;99.90;;;;;;5141340;27;19931;-69
2022/01/24 12:58:35;;;;;;;;;;;6.10;99.90;;;;;;5171548;27;20042;-67
2022/01/24 13:01:00;;;;;;;;;;;6.10;99.90;;;;;;5174912;27;19945;-68
2022/01/24 13:03:26;;;;;;;;;;;6.10;99.90;;;;;;5155747;27;20371;-67
2022/01/24 13:05:52;;;;;;;;;;;6.10;99.90;;;;;;5154337;27;19923;-69
2022/01/24 13:08:18;;;;;;;;;;;6.10;99.90;;;;;;5158688;27;19927;-67
2022/01/24 13:10:48;;;;;;;;;;;6.10;99.90;;;;;;5161919;27;19927;-67
2022/01/24 13:13:15;;;;;;;;;;;6.10;99.90;;;;;;5131491;27;19973;-67
2022/01/24 13:21:22;;;;;;;;;;;6.00;99.90;;;;;;5135851;27;20061;-68
2022/01/24 13:23:53;;;;;;;;;;;6.10;99.90;;;;;;5129054;27;19934;-67
2022/01/24 13:26:19;;;;;;;;;;;6.10;99.90;;;;;;5155687;27;19934;-68
2022/01/24 13:28:45;;;;;;;;;;;6.10;99.90;;;;;;5137226;27;20384;-69
2022/01/24 13:31:10;;;;;;;;;;;6.10;99.90;;;;;;5135710;27;19976;-68
2022/01/24 13:33:40;;;;;;;;;;;6.10;99.90;;;;;;5159920;27;19930;-68
2022/01/24 13:36:09;;;;;;;;;;;6.00;99.90;;;;;;5142186;27;19931;-67
2022/01/24 13:38:39;;;;;;;;;;;6.00;99.90;;;;;;5139762;27;19927;-67
2022/01/24 13:41:08;;;;;;;;;;;6.00;99.90;;;;;;5172050;27;19926;-68
2022/01/24 13:43:38;;;;;;;;;;;6.00;99.90;;;;;;5124629;27;19923;-68
2022/01/24 13:46:08;;;;;;;;;;;6.00;99.90;;;;;;5146235;27;19926;-68
2022/01/24 13:48:38;;;;;;;;;;;6.00;99.90;;;;;;5156345;27;19923;-68
2022/01/24 13:51:04;;;;;;;;;;;6.00;99.90;;;;;;5153244;27;19966;-68
2022/01/24 13:53:37;;;;;;;;;;;6.00;99.90;;;;;;5154914;27;19977;-68
2022/01/24 13:56:15;;;;;;;;;;;6.00;99.90;;;;;;5161315;27;19923;-68
2022/01/24 13:58:41;;;;;;;;;;;6.00;99.90;;;;;;5146368;27;20063;-68
2022/01/24 14:01:06;;;;;;;;;;;6.20;99.90;;;;;;5132065;27;20009;-65
2022/01/24 14:03:32;;;;;;;;;;;6.30;99.90;;;;;;5141379;27;19958;-66
2022/01/24 14:06:10;;;;;;;;;;;6.40;99.90;;;;;;5128887;27;20363;-66
2022/01/24 14:08:36;;;;;;;;;;;6.30;99.90;;;;;;5145166;27;19927;-69
2022/01/24 14:11:15;;;;;;;;;;;6.30;99.90;;;;;;5150354;27;20013;-68
2022/01/24 14:13:48;;;;;;;;;;;6.20;99.90;;;;;;5151640;27;19927;-68
2022/01/24 14:16:35;;;;;;;;;;;6.20;99.90;;;;;;5154632;27;19927;-68
2022/01/24 14:19:02;;;;;;;;;;;6.10;99.90;;;;;;5170403;27;19930;-67
2022/01/24 14:21:29;;;;;;;;;;;6.10;99.90;;;;;;5130523;27;19958;-68
2022/01/24 14:23:55;;;;;;;;;;;6.10;99.90;;;;;;5152751;27;20009;-68
2022/01/24 14:26:22;;;;;;;;;;;6.00;99.90;;;;;;5119137;27;20064;-66
2022/01/24 14:28:48;;;;;;;;;;;6.00;99.90;;;;;;5167630;27;19934;-65
2022/01/24 14:31:15;;;;;;;;;;;6.00;99.90;;;;;;5156931;27;19930;-64
2022/01/24 14:33:42;;;;;;;;;;;6.10;99.90;;;;;;5153168;27;19992;-66
2022/01/24 14:36:13;;;;;;;;;;;6.10;99.90;;;;;;5152895;27;19934;-65
2022/01/24 14:38:38;;;;;;;;;;;6.10;99.90;;;;;;5168099;27;19929;-64
2022/01/24 14:41:06;;;;;;;;;;;6.10;99.90;;;;;;5171482;27;19926;-65
2022/01/24 14:46:18;;;;;;;;;;;6.10;99.90;;;;;;5152065;27;19926;-64
2022/01/24 14:48:45;;;;;;;;;;;6.00;99.90;;;;;;5161405;27;19971;-65
2022/01/24 14:51:11;;;;;;;;;;;6.00;99.90;;;;;;5171827;27;19923;-64
2022/01/24 14:53:36;;;;;;;;;;;6.00;99.90;;;;;;5140620;27;20408;-66
2022/01/24 14:56:02;;;;;;;;;;;6.00;99.90;;;;;;5149021;27;19923;-65
2022/01/24 14:58:28;;;;;;;;;;;6.00;99.90;;;;;;5157105;27;20372;-65
2022/01/24 15:00:53;;;;;;;;;;;6.00;99.90;;;;;;5155338;27;19923;-63
2022/01/24 15:03:19;;;;;;;;;;;6.00;99.90;;;;;;5150239;27;20306;-64
2022/01/24 15:05:45;;;;;;;;;;;6.00;99.90;;;;;;5171926;27;19969;-64
2022/01/24 15:08:11;;;;;;;;;;;6.00;99.90;;;;;;5160165;27;19923;-63
2022/01/24 15:10:36;;;;;;;;;;;5.90;99.90;;;;;;5157998;27;19975;-63
2022/01/24 15:13:06;;;;;;;;;;;5.90;99.90;;;;;;5133785;27;19927;-67
2022/01/24 15:15:35;;;;;;;;;;;5.90;99.90;;;;;;5173246;27;19922;-64
2022/01/24 15:26:12;;;;;;;;;;;5.90;99.90;;;;;;5134098;27;19940;-65
2022/01/24 15:28:38;;;;;;;;;;;5.90;99.90;;;;;;5134140;27;19927;-65
2022/01/24 15:31:04;;;;;;;;;;;5.90;99.90;;;;;;5132284;27;19979;-65
2022/01/24 15:33:29;;;;;;;;;;;5.90;99.90;;;;;;5136646;27;19923;-65
2022/01/24 15:35:57;;;;;;;;;;;6.30;99.90;;;;;;5147186;27;20005;-63
2022/01/24 15:38:22;;;;;;;;;;;5.90;99.90;;;;;;5119728;27;19972;-67
2022/01/24 15:40:48;;;;;;;;;;;5.90;99.90;;;;;;5123768;27;19931;-65
2022/01/24 15:48:14;;;;;;;;;;;5.80;99.90;;;;;;5152776;27;20061;-65
2022/01/24 15:50:40;;;;;;;;;;;5.80;99.90;;;;;;5158343;27;20352;-64
2022/01/24 15:53:07;;;;;;;;;;;5.80;99.90;;;;;;5135312;27;19929;-64
2022/01/24 15:55:34;;;;;;;;;;;5.80;99.90;;;;;;5156460;27;20036;-63
2022/01/24 15:58:02;;;;;;;;;;;5.80;99.90;;;;;;5169119;27;19922;-63
2022/01/24 16:00:33;;;;;;;;;;;5.80;99.90;;;;;;5147673;27;19946;-64
2022/01/24 16:02:59;;;;;;;;;;;5.80;99.90;;;;;;5136827;27;19926;-64
2022/01/24 16:05:26;;;;;;;;;;;5.80;99.90;;;;;;5140891;27;19930;-65
2022/01/24 16:07:53;;;;;;;;;;;5.80;99.90;;;;;;5170579;27;19923;-64
2022/01/24 16:10:20;;;;;;;;;;;5.80;99.90;;;;;;5122883;27;20454;-64
2022/01/24 16:12:47;;;;;;;;;;;5.80;99.90;;;;;;5175067;27;20320;-64
2022/01/24 16:15:17;;;;;;;;;;;5.80;99.90;;;;;;5165087;27;19923;-69
2022/01/24 16:17:43;;;;;;;;;;;5.70;99.90;;;;;;5157337;27;19980;-64
2022/01/24 16:28:15;;;;;;;;;;;5.70;99.90;;;;;;5113926;27;19929;-64
2022/01/24 16:30:42;;;;;;;;;;;5.70;99.90;;;;;;5155406;27;20391;-65
2022/01/24 16:33:08;;;;;;;;;;;5.70;99.90;;;;;;5139964;27;20375;-63
2022/01/24 16:35:34;;;;;;;;;;;5.70;99.90;;;;;;5153213;27;19930;-63
2022/01/24 16:38:00;;;;;;;;;;;5.70;99.90;;;;;;5175631;27;19934;-66
2022/01/24 16:40:29;;;;;;;;;;;5.70;99.90;;;;;;5115514;27;19923;-63
2022/01/24 16:48:26;;;;;;;;;;;5.60;99.90;;;;;;5167271;27;19930;-63
2022/01/24 16:50:52;;;;;;;;;;;5.60;99.90;;;;;;5140336;27;19922;-63
2022/01/24 16:53:19;;;;;;;;;;;5.60;99.90;;;;;;5145719;27;19963;-63
2022/01/24 16:55:45;;;;;;;;;;;5.60;99.90;;;;;;5155354;27;19927;-64
2022/01/24 16:58:12;;;;;;;;;;;5.70;99.90;;;;;;5124951;27;20002;-64
2022/01/24 17:00:38;;;;;;;;;;;5.70;99.90;;;;;;5137721;27;20018;-65
2022/01/24 17:03:04;;;;;;;;;;;5.70;99.90;;;;;;5149669;27;19926;-63
2022/01/24 17:05:30;;;;;;;;;;;5.70;99.90;;;;;;5135272;27;19945;-65
2022/01/24 17:07:56;;;;;;;;;;;5.80;99.90;;;;;;5138098;27;19927;-65
2022/01/24 17:10:21;;;;;;;;;;;5.80;99.90;;;;;;5170480;27;19922;-68
2022/01/24 17:12:49;;;;;;;;;;;5.80;99.90;;;;;;5174922;27;20255;-64
2022/01/24 17:15:15;;;;;;;;;;;5.90;99.90;;;;;;5175170;27;20379;-64
2022/01/24 17:17:41;;;;;;;;;;;5.90;99.90;;;;;;5140051;27;19937;-64
2022/01/24 17:20:08;;;;;;;;;;;6.00;99.90;;;;;;5154016;27;20009;-64